createdAt,value
2022-10-20T00:26:11.308Z,2.43
2022-10-20T00:28:38.794Z,2.43
2022-10-20T00:31:06.471Z,2.43
2022-10-20T00:33:34.609Z,2.43
2022-10-20T00:36:03.265Z,2.45
2022-10-20T00:38:30.017Z,2.44
2022-10-20T00:40:57.089Z,2.47
2022-10-20T00:43:24.014Z,2.48
2022-10-20T00:45:55.493Z,2.52
2022-10-20T00:48:28.228Z,2.47
2022-10-20T00:50:56.365Z,2.49
2022-10-20T00:53:27.602Z,2.40
2022-10-20T00:55:56.776Z,2.48
2022-10-20T00:58:24.159Z,2.64
2022-10-20T01:00:55.393Z,2.81
2022-10-20T01:03:34.767Z,2.94
2022-10-20T01:06:01.577Z,3.01
2022-10-20T01:08:28.326Z,3.00
2022-10-20T01:11:04.016Z,3.16
2022-10-20T01:13:53.548Z,3.26
2022-10-20T01:16:29.021Z,3.36
2022-10-20T01:19:33.886Z,3.46
2022-10-20T01:22:06.717Z,3.58
2022-10-20T01:25:10.392Z,3.60
2022-10-20T01:27:41.957Z,3.60
2022-10-20T01:30:11.826Z,3.63
2022-10-20T01:32:44.810Z,3.55
2022-10-20T01:35:21.389Z,3.48
2022-10-20T01:37:57.034Z,3.51
2022-10-20T01:40:38.666Z,3.46
2022-10-20T01:43:10.819Z,3.40
2022-10-20T01:45:42.174Z,3.36
2022-10-20T01:48:11.956Z,3.21
2022-10-20T01:50:40.830Z,3.11
2022-10-20T01:53:08.627Z,3.02
2022-10-20T01:55:37.106Z,2.91
2022-10-20T01:58:09.881Z,2.84
2022-10-20T02:00:38.392Z,2.81
2022-10-20T02:03:05.046Z,2.71
2022-10-20T02:05:42.239Z,2.63
2022-10-20T02:08:11.768Z,2.50
2022-10-20T02:10:46.847Z,2.49
2022-10-20T02:13:15.109Z,2.42
2022-10-20T02:15:53.739Z,2.44
2022-10-20T02:18:42.410Z,2.42
2022-10-20T02:21:10.713Z,2.36
2022-10-20T02:23:40.055Z,2.39
2022-10-20T02:26:09.012Z,2.40
2022-10-20T02:28:40.822Z,2.48
2022-10-20T02:31:08.155Z,2.46
2022-10-20T02:33:35.915Z,2.55
2022-10-20T02:36:06.014Z,2.63
2022-10-20T02:38:32.910Z,2.66
2022-10-20T02:40:59.666Z,2.74
2022-10-20T02:43:26.397Z,2.78
2022-10-20T02:45:53.101Z,2.73
2022-10-20T02:48:19.830Z,2.76
2022-10-20T02:50:46.602Z,2.73
2022-10-20T02:53:13.364Z,2.81
2022-10-20T02:55:41.287Z,2.79
2022-10-20T02:58:08.065Z,2.82
2022-10-20T03:00:34.788Z,2.85
2022-10-20T03:03:01.622Z,2.84
2022-10-20T03:05:29.429Z,2.82
2022-10-20T03:07:56.186Z,2.79
2022-10-20T03:10:22.925Z,2.79
2022-10-20T03:12:49.699Z,2.75
2022-10-20T03:15:16.778Z,2.77
2022-10-20T03:17:43.497Z,2.73
2022-10-20T03:20:10.573Z,2.73
2022-10-20T03:22:37.409Z,2.76
2022-10-20T03:25:04.853Z,2.70
2022-10-20T03:27:31.925Z,2.63
2022-10-20T03:29:58.759Z,2.59
2022-10-20T03:32:25.948Z,2.67
2022-10-20T03:34:52.996Z,2.72
2022-10-20T03:37:20.120Z,2.88
2022-10-20T03:39:47.132Z,2.97
2022-10-20T03:42:15.069Z,3.08
2022-10-20T03:44:44.993Z,3.20
2022-10-20T03:47:13.472Z,3.24
2022-10-20T03:49:40.774Z,3.17
2022-10-20T03:52:07.836Z,3.22
2022-10-20T03:54:36.428Z,3.27
2022-10-20T03:57:06.949Z,3.29
2022-10-20T03:59:35.105Z,3.32
2022-10-20T04:02:02.302Z,3.48
2022-10-20T04:04:29.506Z,3.50
2022-10-20T04:06:56.521Z,3.55
2022-10-20T04:09:23.617Z,3.49
2022-10-20T04:11:50.740Z,3.43
2022-10-20T04:14:17.790Z,3.49
2022-10-20T04:16:44.737Z,3.41
2022-10-20T04:19:11.955Z,3.52
2022-10-20T04:21:38.987Z,3.52
2022-10-20T04:24:07.391Z,3.42
2022-10-20T04:26:34.244Z,3.55
2022-10-20T04:29:01.358Z,3.51
2022-10-20T04:31:28.236Z,3.59
2022-10-20T04:33:55.231Z,3.57
2022-10-20T04:36:22.151Z,3.59
2022-10-20T04:38:49.184Z,3.52
2022-10-20T04:41:16.029Z,3.58
2022-10-20T04:43:43.040Z,3.51
2022-10-20T04:46:11.089Z,3.51
2022-10-20T04:48:41.939Z,3.45
2022-10-20T04:51:11.872Z,3.42
2022-10-20T04:53:39.374Z,3.37
2022-10-20T04:56:07.985Z,3.40
2022-10-20T04:58:35.338Z,3.43
2022-10-20T05:01:07.495Z,3.39
2022-10-20T05:03:35.128Z,3.47
2022-10-20T05:06:08.554Z,3.49
2022-10-20T05:08:35.726Z,3.37
2022-10-20T05:11:03.062Z,3.41
2022-10-20T05:13:30.201Z,3.37
2022-10-20T05:15:57.211Z,3.32
2022-10-20T05:18:24.157Z,3.25
2022-10-20T05:21:07.804Z,3.22
2022-10-20T05:23:36.385Z,3.21
2022-10-20T05:26:05.178Z,3.22
2022-10-20T05:28:32.374Z,3.36
2022-10-20T05:31:07.844Z,3.38
2022-10-20T05:33:35.363Z,3.36
2022-10-20T05:36:10.607Z,3.35
2022-10-20T05:38:37.801Z,3.37
2022-10-20T05:41:11.141Z,3.35
2022-10-20T05:43:39.186Z,3.46
2022-10-20T05:46:06.477Z,3.48
2022-10-20T05:48:34.260Z,3.54
2022-10-20T05:51:15.621Z,3.65
2022-10-20T05:53:43.231Z,3.63
2022-10-20T05:56:13.202Z,3.66
2022-10-20T05:58:40.677Z,3.71
2022-10-20T06:01:18.399Z,3.69
2022-10-20T06:03:53.420Z,3.73
2022-10-20T06:06:22.659Z,3.86
2022-10-20T06:08:51.017Z,3.81
2022-10-20T06:11:18.756Z,3.82
2022-10-20T06:13:48.615Z,3.83
2022-10-20T06:16:24.177Z,3.86
2022-10-20T06:18:51.188Z,3.85
2022-10-20T06:21:23.730Z,3.93
2022-10-20T06:23:51.249Z,3.93
2022-10-20T06:26:25.143Z,3.98
2022-10-20T06:28:56.692Z,4.03
2022-10-20T06:31:31.097Z,3.96
2022-10-20T06:33:59.312Z,3.98
2022-10-20T06:36:27.449Z,3.94
2022-10-20T06:38:58.950Z,3.91
2022-10-20T06:41:27.127Z,4.00
2022-10-20T06:43:58.576Z,4.03
2022-10-20T06:46:27.926Z,4.07
2022-10-20T06:48:58.590Z,4.16
2022-10-20T06:51:26.287Z,4.19
2022-10-20T06:53:53.537Z,4.25
2022-10-20T06:56:25.781Z,4.27
2022-10-20T06:58:54.237Z,4.37
2022-10-20T07:01:24.946Z,4.40
2022-10-20T07:03:54.500Z,4.42
2022-10-20T07:06:24.457Z,4.40
2022-10-20T07:08:53.810Z,4.39
2022-10-20T07:11:23.723Z,4.49
2022-10-20T07:13:51.078Z,4.72
2022-10-20T07:16:20.999Z,4.85
2022-10-20T07:18:48.486Z,4.95
2022-10-20T07:21:18.035Z,5.00
2022-10-20T07:23:45.064Z,4.99
2022-10-20T07:26:20.375Z,5.23
2022-10-20T07:28:53.335Z,5.40
2022-10-20T07:31:35.485Z,5.44
2022-10-20T07:34:28.383Z,5.34
2022-10-20T07:36:50.286Z,5.34
2022-10-20T07:39:17.217Z,5.36
2022-10-20T07:41:48.172Z,5.42
2022-10-20T07:44:16.170Z,5.32
2022-10-20T07:46:43.334Z,5.35
2022-10-20T07:49:42.887Z,5.22
2022-10-20T07:51:57.396Z,5.17
2022-10-20T07:54:24.331Z,5.17
2022-10-20T07:56:51.278Z,5.26
2022-10-20T07:59:19.231Z,5.21
2022-10-20T08:01:46.528Z,5.18
2022-10-20T08:04:13.505Z,5.23
2022-10-20T08:06:40.413Z,5.19
2022-10-20T08:09:07.963Z,5.18
2022-10-20T08:11:35.947Z,5.12
2022-10-20T08:14:03.096Z,5.09
2022-10-20T08:16:30.142Z,5.14
2022-10-20T08:21:38.217Z,5.11
2022-10-20T08:24:05.458Z,5.18
2022-10-20T08:26:32.387Z,5.17
2022-10-20T08:28:59.525Z,5.19
2022-10-20T08:31:26.506Z,5.20
2022-10-20T08:33:53.564Z,5.26
2022-10-20T08:36:21.311Z,5.30
2022-10-20T08:38:48.911Z,5.27
2022-10-20T08:41:21.783Z,5.25
2022-10-20T08:43:52.261Z,5.15
2022-10-20T08:46:23.312Z,5.21
2022-10-20T08:48:50.952Z,5.22
2022-10-20T08:51:27.265Z,5.24
2022-10-20T08:53:58.220Z,5.16
2022-10-20T08:56:29.955Z,5.32
2022-10-20T08:58:57.240Z,5.29
2022-10-20T09:01:25.619Z,5.34
2022-10-20T09:04:04.079Z,5.35
2022-10-20T09:06:31.520Z,5.44
2022-10-20T09:08:58.638Z,5.41
2022-10-20T09:11:38.082Z,5.43
2022-10-20T09:14:05.384Z,5.47
2022-10-20T09:16:58.771Z,5.61
2022-10-20T09:19:25.719Z,5.62
2022-10-20T09:21:57.698Z,5.74
2022-10-20T09:24:27.590Z,5.82
2022-10-20T09:26:59.061Z,5.88
2022-10-20T09:29:38.059Z,5.90
2022-10-20T09:32:47.314Z,6.09
2022-10-20T09:35:26.372Z,6.16
2022-10-20T09:37:58.015Z,6.21
2022-10-20T09:40:26.644Z,6.33
2022-10-20T09:43:15.747Z,6.40
2022-10-20T09:45:53.942Z,6.47
2022-10-20T09:48:26.832Z,6.53
2022-10-20T09:50:56.222Z,6.69
2022-10-20T09:53:51.445Z,6.92
2022-10-20T09:56:47.051Z,7.02
2022-10-20T09:59:44.430Z,7.12
2022-10-20T10:02:17.736Z,7.24
2022-10-20T10:04:46.827Z,7.37
2022-10-20T10:07:22.881Z,7.43
2022-10-20T10:10:26.266Z,7.62
2022-10-20T10:13:01.024Z,7.59
2022-10-20T10:15:35.050Z,7.71
2022-10-20T10:18:14.417Z,7.85
2022-10-20T10:20:41.674Z,7.88
2022-10-20T10:23:19.248Z,8.04
2022-10-20T10:25:46.668Z,8.02
2022-10-20T10:28:37.900Z,8.14
2022-10-20T10:31:16.867Z,8.30
2022-10-20T10:33:43.850Z,8.53
2022-10-20T10:36:18.931Z,8.73
2022-10-20T10:38:45.956Z,8.75
2022-10-20T10:41:30.814Z,8.91
2022-10-20T10:43:57.734Z,8.92
2022-10-20T10:46:28.219Z,8.97
2022-10-20T10:49:16.827Z,9.27
2022-10-20T10:52:06.769Z,9.50
2022-10-20T10:55:01.730Z,9.48
2022-10-20T10:57:37.700Z,9.49
2022-10-20T11:00:16.341Z,9.70
2022-10-20T11:03:11.131Z,9.84
2022-10-20T11:06:05.627Z,9.75
2022-10-20T11:09:17.146Z,9.72
2022-10-20T11:11:56.389Z,9.48
2022-10-20T11:14:44.330Z,9.42
2022-10-20T11:17:23.430Z,9.25
2022-10-20T11:20:29.513Z,9.16
2022-10-20T11:23:05.611Z,9.20
2022-10-20T11:25:44.707Z,9.28
2022-10-20T11:28:31.946Z,9.48
2022-10-20T11:30:59.760Z,9.47
2022-10-20T11:33:41.477Z,9.57
2022-10-20T11:36:18.662Z,9.56
2022-10-20T11:38:50.736Z,9.52
2022-10-20T11:41:32.557Z,9.44
2022-10-20T11:44:05.190Z,9.47
2022-10-20T11:47:06.436Z,9.47
2022-10-20T11:49:34.208Z,9.60
2022-10-20T11:52:59.073Z,9.54
2022-10-20T11:56:09.914Z,9.45
2022-10-20T11:58:42.520Z,9.40
2022-10-20T12:01:37.248Z,9.25
2022-10-20T12:04:25.734Z,9.01
2022-10-20T12:06:55.285Z,8.95
2022-10-20T12:09:50.564Z,8.70
2022-10-20T12:12:33.374Z,8.57
2022-10-20T12:15:03.682Z,8.46
2022-10-20T12:17:36.035Z,8.26
2022-10-20T12:20:21.452Z,8.21
2022-10-20T12:22:54.586Z,8.31
2022-10-20T12:25:27.392Z,8.24
2022-10-20T12:28:13.072Z,8.24
2022-10-20T12:30:40.031Z,8.24
2022-10-20T12:33:20.317Z,8.19
2022-10-20T12:36:16.347Z,8.24
2022-10-20T12:38:46.519Z,8.14
2022-10-20T12:41:28.006Z,8.14
2022-10-20T12:44:00.818Z,8.13
2022-10-20T12:46:28.742Z,8.17
2022-10-20T12:49:01.312Z,8.11
2022-10-20T12:51:54.723Z,8.15
2022-10-20T12:54:28.768Z,8.11
2022-10-20T12:57:05.755Z,8.14
2022-10-20T12:59:39.084Z,8.15
2022-10-20T13:02:09.047Z,8.21
2022-10-20T13:05:14.195Z,8.27
2022-10-20T13:07:49.647Z,8.37
2022-10-20T13:10:31.368Z,8.37
2022-10-20T13:13:01.229Z,8.45
2022-10-20T13:15:43.327Z,8.44
2022-10-20T13:18:12.974Z,8.50
2022-10-20T13:21:02.097Z,8.52
2022-10-20T13:23:59.230Z,8.46
2022-10-20T13:26:36.529Z,8.38
2022-10-20T13:29:12.659Z,8.33
2022-10-20T13:31:50.196Z,8.22
2022-10-20T13:34:22.159Z,8.08
2022-10-20T13:36:48.921Z,7.96
2022-10-20T13:39:38.769Z,7.96
2022-10-20T13:42:14.534Z,7.83
2022-10-20T13:45:27.995Z,7.82
2022-10-20T13:48:05.591Z,7.84
2022-10-20T13:50:47.279Z,7.83
2022-10-20T13:53:22.965Z,7.81
2022-10-20T13:56:08.464Z,7.83
2022-10-20T13:58:35.557Z,7.84
2022-10-20T14:01:19.403Z,7.82
2022-10-20T14:03:47.491Z,7.86
2022-10-20T14:06:36.935Z,7.80
2022-10-20T14:09:17.946Z,7.82
2022-10-20T14:11:55.657Z,7.77
2022-10-20T14:14:25.819Z,7.81
2022-10-20T14:17:04.774Z,7.70
2022-10-20T14:19:33.633Z,7.78
2022-10-20T14:22:11.080Z,7.78
2022-10-20T14:24:43.875Z,7.69
2022-10-20T14:27:17.291Z,7.69
2022-10-20T14:29:44.073Z,7.58
2022-10-20T14:32:18.735Z,7.47
2022-10-20T14:34:54.758Z,7.33
2022-10-20T14:37:32.960Z,7.25
2022-10-20T14:40:03.007Z,7.16
2022-10-20T14:42:32.062Z,7.03
2022-10-20T14:45:01.252Z,6.96
2022-10-20T14:47:39.143Z,7.04
2022-10-20T14:50:06.644Z,6.90
2022-10-20T14:52:38.773Z,6.83
2022-10-20T14:55:27.397Z,6.74
2022-10-20T14:57:54.262Z,6.77
2022-10-20T15:00:26.429Z,6.72
2022-10-20T15:02:57.133Z,6.67
2022-10-20T15:05:42.965Z,6.75
2022-10-20T15:08:29.697Z,6.78
2022-10-20T15:10:57.977Z,6.83
2022-10-20T15:13:30.373Z,6.89
2022-10-20T15:15:59.099Z,6.93
2022-10-20T15:18:27.051Z,6.98
2022-10-20T15:20:55.103Z,7.03
2022-10-20T15:48:56.176Z,6.78
2022-10-20T15:51:27.498Z,6.80
2022-10-20T15:53:54.641Z,6.77
2022-10-20T15:56:21.466Z,6.73
2022-10-20T15:58:50.175Z,6.83
2022-10-20T16:01:18.591Z,6.89
2022-10-20T16:03:46.518Z,6.85
2022-10-20T16:06:15.438Z,6.91
2022-10-20T16:08:43.714Z,6.95
2022-10-20T16:11:11.687Z,6.98
2022-10-20T16:13:39.578Z,7.02
2022-10-20T16:16:08.125Z,6.91
2022-10-20T16:18:35.101Z,6.99
2022-10-20T16:21:04.640Z,7.00
2022-10-20T16:23:31.719Z,7.01
2022-10-20T16:25:58.476Z,7.04
2022-10-20T16:28:25.274Z,6.97
2022-10-20T16:31:02.001Z,6.95
2022-10-20T16:33:28.845Z,6.90
2022-10-20T16:35:55.652Z,6.92
2022-10-20T16:38:22.664Z,6.83
2022-10-20T16:41:00.861Z,6.85
2022-10-20T16:43:28.571Z,6.84
2022-10-20T16:45:56.328Z,6.85
2022-10-20T16:48:23.820Z,6.80
2022-10-20T16:50:50.955Z,6.87
2022-10-20T16:53:17.938Z,6.86
2022-10-20T16:55:54.727Z,6.92
2022-10-20T16:58:22.070Z,6.84
2022-10-20T17:01:02.145Z,6.92
2022-10-20T17:03:30.256Z,6.92
2022-10-20T17:06:00.096Z,6.88
2022-10-20T17:08:28.346Z,6.86
2022-10-20T17:11:00.328Z,6.85
2022-10-20T17:13:28.271Z,6.86
2022-10-20T17:15:55.590Z,6.91
2022-10-20T17:18:24.162Z,6.93
2022-10-20T17:20:55.065Z,6.90
2022-10-20T17:23:23.329Z,6.94
2022-10-20T17:25:51.714Z,6.91
2022-10-20T17:28:18.978Z,6.93
2022-10-20T17:30:49.011Z,6.90
2022-10-20T17:33:16.005Z,6.82
2022-10-20T17:35:47.795Z,6.71
2022-10-20T17:38:14.870Z,6.59
2022-10-20T17:40:41.658Z,6.46
2022-10-20T17:43:08.465Z,6.28
2022-10-20T17:45:38.072Z,6.17
2022-10-20T17:48:05.707Z,6.14
2022-10-20T17:50:33.068Z,6.07
2022-10-20T17:53:01.284Z,6.10
2022-10-20T17:55:28.691Z,6.12
2022-10-20T17:57:56.068Z,6.19
2022-10-20T18:00:32.137Z,6.26
2022-10-20T18:03:09.711Z,6.30
2022-10-20T18:05:36.864Z,6.36
2022-10-20T18:08:04.370Z,6.46
2022-10-20T18:10:31.189Z,6.49
2022-10-20T18:12:58.101Z,6.54
2022-10-20T18:15:24.997Z,6.60
2022-10-20T18:17:51.786Z,6.63
2022-10-20T18:20:18.525Z,6.70
2022-10-20T18:22:45.617Z,6.73
2022-10-20T18:25:12.424Z,6.74
2022-10-20T18:27:39.163Z,6.79
2022-10-20T18:30:08.099Z,6.79
2022-10-20T18:32:36.586Z,6.81
2022-10-20T18:35:03.710Z,6.80
2022-10-20T18:37:30.441Z,6.83
2022-10-20T18:39:57.218Z,6.85
2022-10-20T18:42:23.922Z,6.87
2022-10-20T18:44:50.660Z,6.90
2022-10-20T18:47:17.433Z,6.97
2022-10-20T18:49:44.189Z,6.93
2022-10-20T18:52:10.915Z,7.01
2022-10-20T18:54:38.032Z,7.05
2022-10-20T18:57:04.791Z,7.05
2022-10-20T18:59:31.587Z,7.00
2022-10-20T19:01:58.428Z,7.05
2022-10-20T19:04:25.317Z,7.06
2022-10-20T19:06:52.281Z,7.05
2022-10-20T19:09:20.873Z,7.08
2022-10-20T19:14:17.562Z,7.03
2022-10-20T19:16:49.798Z,7.03
2022-10-20T19:19:16.895Z,7.09
2022-10-20T19:21:43.964Z,7.09
2022-10-20T19:24:17.698Z,7.13
2022-10-20T19:26:57.549Z,7.12
2022-10-20T19:29:35.181Z,7.05
2022-10-20T19:32:03.908Z,7.14
2022-10-20T19:34:32.849Z,7.15
2022-10-20T19:36:59.724Z,7.14
2022-10-20T19:39:33.819Z,7.13
2022-10-20T19:42:02.287Z,7.17
2022-10-20T19:44:29.558Z,7.12
2022-10-20T20:12:22.950Z,7.21
2022-10-20T20:14:49.868Z,7.08
2022-10-20T20:17:16.764Z,7.06
2022-10-20T20:19:43.476Z,7.10
2022-10-20T20:22:10.338Z,7.04
2022-10-20T20:24:38.904Z,7.08
2022-10-20T20:27:05.766Z,7.05
2022-10-20T20:29:32.500Z,7.03
2022-10-20T20:31:59.325Z,7.05
2022-10-20T20:34:26.143Z,7.04
2022-10-20T20:36:52.930Z,7.05
2022-10-20T20:39:19.871Z,7.05
2022-10-20T20:41:47.146Z,7.04
2022-10-20T20:44:14.018Z,7.00
2022-10-20T20:46:40.885Z,6.96
2022-10-20T20:49:07.696Z,6.98
2022-10-20T20:51:34.504Z,6.93
2022-10-20T20:54:02.682Z,6.92
2022-10-20T20:56:29.720Z,6.85
2022-10-20T20:58:56.590Z,6.73
2022-10-20T21:01:27.548Z,6.67
2022-10-20T21:04:00.039Z,6.51
2022-10-20T21:06:33.717Z,6.43
2022-10-20T21:09:01.074Z,6.33
2022-10-20T21:11:28.323Z,6.25
2022-10-20T21:13:57.558Z,6.13
2022-10-20T21:16:26.372Z,6.00
2022-10-20T21:18:55.638Z,5.89
2022-10-20T21:21:25.177Z,5.69
2022-10-20T21:23:53.317Z,5.50
2022-10-20T21:26:21.635Z,5.35
2022-10-20T21:28:49.460Z,5.13
2022-10-20T21:31:18.736Z,4.89
2022-10-20T21:33:49.548Z,4.70
2022-10-20T21:36:18.280Z,4.48
2022-10-20T21:38:45.099Z,4.27
2022-10-20T21:41:17.427Z,4.10
2022-10-20T21:43:48.919Z,3.89
2022-10-20T21:46:22.984Z,3.71
2022-10-20T21:48:52.087Z,3.54
2022-10-20T21:51:24.940Z,3.40
2022-10-20T21:53:59.680Z,3.25
2022-10-20T21:56:27.401Z,3.12
2022-10-20T21:58:55.086Z,2.99
2022-10-20T22:01:24.978Z,2.89
2022-10-20T22:03:53.814Z,2.78
2022-10-20T22:06:23.640Z,2.67
2022-10-20T22:08:53.535Z,2.59
2022-10-20T22:11:29.637Z,2.51
2022-10-20T22:13:57.129Z,2.42
2022-10-20T22:16:27.565Z,2.32
2022-10-20T22:19:04.031Z,2.23
2022-10-20T22:21:31.982Z,2.13
2022-10-20T22:23:59.780Z,2.12
2022-10-20T22:26:29.272Z,2.03
2022-10-20T22:28:57.226Z,1.97
2022-10-20T22:31:24.711Z,1.88
2022-10-20T22:33:52.685Z,1.78
2022-10-20T22:36:20.241Z,1.73
2022-10-20T22:38:47.122Z,1.67
2022-10-20T22:41:14.029Z,1.58
2022-10-20T22:43:40.978Z,1.51
2022-10-20T22:46:08.153Z,1.45
2022-10-20T22:48:35.714Z,1.38
2022-10-20T22:51:09.917Z,1.31
2022-10-20T22:53:37.542Z,1.23
2022-10-20T22:56:14.778Z,1.16
2022-10-20T22:58:42.771Z,1.09
2022-10-20T23:01:15.105Z,1.06
2022-10-20T23:03:42.316Z,1.10
2022-10-20T23:06:15.847Z,1.04
2022-10-20T23:08:46.078Z,0.98
2022-10-20T23:11:14.330Z,0.97
2022-10-20T23:13:41.235Z,0.94
2022-10-20T23:16:08.821Z,0.89
2022-10-20T23:18:35.663Z,0.86
2022-10-20T23:21:02.984Z,0.87
2022-10-20T23:23:30.062Z,0.80
2022-10-20T23:25:58.497Z,0.77
2022-10-20T23:28:27.613Z,0.78
2022-10-20T23:31:14.661Z,0.81
2022-10-20T23:33:43.320Z,0.79
2022-10-20T23:36:10.428Z,0.72
2022-10-20T23:38:37.415Z,0.69
2022-10-20T23:41:04.561Z,0.66
2022-10-20T23:43:31.656Z,0.61
2022-10-20T23:45:58.603Z,0.57
2022-10-20T23:48:25.832Z,0.52
2022-10-20T23:50:52.672Z,0.48
2022-10-20T23:53:19.782Z,0.47
2022-10-20T23:55:46.561Z,0.46
2022-10-20T23:58:13.346Z,0.42
